createdAt,value
2023-05-01T00:01:43.238Z,101993.59
2023-05-01T00:04:09.965Z,101991.72
2023-05-01T00:06:36.758Z,101988.63
2023-05-01T00:09:07.205Z,101992.94
2023-05-01T00:11:37.662Z,101981.88
2023-05-01T00:14:04.416Z,101980.13
2023-05-01T00:16:31.333Z,101976.75
2023-05-01T00:18:57.801Z,101976.22
2023-05-01T00:21:24.668Z,101973.00
2023-05-01T00:23:51.266Z,101967.50
2023-05-01T00:26:17.763Z,101954.94
2023-05-01T00:28:44.238Z,101964.72
2023-05-01T00:31:10.977Z,101964.84
2023-05-01T00:33:37.477Z,101956.63
2023-05-01T00:36:06.308Z,101953.38
2023-05-01T00:38:37.717Z,101951.13
2023-05-01T00:41:06.748Z,101953.69
2023-05-01T00:43:36.301Z,101949.38
2023-05-01T00:46:03.324Z,101944.81
2023-05-01T00:48:32.221Z,101945.91
2023-05-01T00:51:01.900Z,101926.34
2023-05-01T00:53:31.041Z,101923.78
2023-05-01T00:56:00.912Z,101921.53
2023-05-01T00:58:27.817Z,101925.31
2023-05-01T01:00:57.349Z,101919.66
2023-05-01T01:03:27.649Z,101919.13
2023-05-01T01:06:04.976Z,101911.09
2023-05-01T01:08:42.281Z,101907.47
2023-05-01T01:11:27.032Z,101898.44
2023-05-01T01:14:05.948Z,101899.16
2023-05-01T01:16:45.972Z,101897.69
2023-05-01T01:19:30.041Z,101893.13
2023-05-01T01:22:06.173Z,101888.94
2023-05-01T01:25:12.225Z,101881.53
2023-05-01T01:27:58.017Z,101885.03
2023-05-01T01:30:33.516Z,101878.16
2023-05-01T01:33:40.178Z,101880.34
2023-05-01T01:36:13.580Z,101869.41
2023-05-01T01:38:46.956Z,101864.84
2023-05-01T01:41:22.455Z,101867.97
2023-05-01T01:43:58.445Z,101857.75
2023-05-01T01:46:26.870Z,101855.34
2023-05-01T01:48:56.194Z,101851.44
2023-05-01T01:51:29.380Z,101843.91
2023-05-01T01:54:03.086Z,101841.19
2023-05-01T01:56:35.381Z,101839.44
2023-05-01T01:59:06.118Z,101823.41
2023-05-01T02:01:34.989Z,101830.28
2023-05-01T02:04:03.385Z,101822.88
2023-05-01T02:06:33.051Z,101822.22
2023-05-01T02:09:06.375Z,101820.75
2023-05-01T02:11:38.650Z,101819.03
2023-05-01T02:14:08.870Z,101812.72
2023-05-01T02:16:36.822Z,101810.44
2023-05-01T02:19:07.391Z,101805.97
2023-05-01T02:21:37.838Z,101809.78
2023-05-01T02:24:10.426Z,101797.00
2023-05-01T02:26:43.261Z,101800.84
2023-05-01T02:29:10.548Z,101798.06
2023-05-01T02:31:37.299Z,101800.53
2023-05-01T02:34:03.896Z,101797.28
2023-05-01T02:36:33.430Z,101793.91
2023-05-01T02:39:01.482Z,101790.28
2023-05-01T02:41:28.420Z,101785.97
2023-05-01T02:44:04.155Z,101791.66
2023-05-01T02:46:33.345Z,101786.94
2023-05-01T02:49:05.256Z,101781.94
2023-05-01T02:51:32.565Z,101781.69
2023-05-01T02:54:00.157Z,101776.41
2023-05-01T02:56:29.737Z,101778.03
2023-05-01T02:58:58.602Z,101774.13
2023-05-01T03:01:28.441Z,101762.53
2023-05-01T03:03:58.246Z,101765.59
2023-05-01T03:06:24.836Z,101764.94
2023-05-01T03:08:53.695Z,101758.63
2023-05-01T03:11:21.182Z,101756.72
2023-05-01T03:13:48.689Z,101757.78
2023-05-01T03:16:15.171Z,101750.47
2023-05-01T03:18:44.252Z,101749.25
2023-05-01T03:21:12.563Z,101745.91
2023-05-01T03:23:41.762Z,101742.53
2023-05-01T03:26:08.562Z,101745.63
2023-05-01T03:28:35.054Z,101735.09
2023-05-01T03:31:01.607Z,101732.63
2023-05-01T03:33:28.142Z,101733.28
2023-05-01T03:36:08.932Z,101734.03
2023-05-01T03:38:37.761Z,101721.63
2023-05-01T03:41:09.118Z,101723.53
2023-05-01T03:43:35.710Z,101719.84
2023-05-01T03:46:04.358Z,101728.06
2023-05-01T03:48:33.380Z,101725.22
2023-05-01T03:51:01.961Z,101722.66
2023-05-01T03:53:28.462Z,101707.59
2023-05-01T03:55:59.777Z,101709.34
2023-05-01T03:58:26.218Z,101710.41
2023-05-01T04:00:56.942Z,101705.88
2023-05-01T04:03:25.979Z,101711.53
2023-05-01T04:05:54.675Z,101714.38
2023-05-01T04:08:23.636Z,101708.72
2023-05-01T04:10:50.099Z,101714.91
2023-05-01T04:13:16.574Z,101703.91
2023-05-01T04:15:45.770Z,101703.63
2023-05-01T04:18:14.666Z,101709.41
2023-05-01T04:20:41.255Z,101712.63
2023-05-01T04:23:09.506Z,101709.94
2023-05-01T04:25:38.465Z,101706.25
2023-05-01T04:28:05.223Z,101712.59
2023-05-01T04:30:31.895Z,101705.59
2023-05-01T04:33:00.515Z,101698.03
2023-05-01T04:35:29.313Z,101694.81
2023-05-01T04:37:55.844Z,101695.22
2023-05-01T04:40:22.274Z,101691.84
2023-05-01T04:42:50.891Z,101695.38
2023-05-01T04:45:17.470Z,101691.63
2023-05-01T04:47:44.335Z,101698.22
2023-05-01T04:50:11.570Z,101695.38
2023-05-01T04:52:38.082Z,101689.84
2023-05-01T04:55:04.999Z,101693.69
2023-05-01T04:57:33.956Z,101698.41
2023-05-01T05:00:00.520Z,101702.28
2023-05-01T05:02:27.358Z,101705.06
2023-05-01T05:04:54.213Z,101705.25
2023-05-01T05:07:23.251Z,101717.50
2023-05-01T05:09:52.291Z,101703.59
2023-05-01T05:12:21.067Z,101704.91
2023-05-01T05:14:50.064Z,101699.97
2023-05-01T05:17:16.509Z,101704.81
2023-05-01T05:19:45.401Z,101700.53
2023-05-01T05:22:12.649Z,101695.47
2023-05-01T05:24:41.699Z,101700.00
2023-05-01T05:27:10.476Z,101699.84
2023-05-01T05:29:36.969Z,101692.31
2023-05-01T05:32:03.725Z,101701.44
2023-05-01T05:34:30.272Z,101710.91
2023-05-01T05:36:56.779Z,101704.53
2023-05-01T05:39:23.756Z,101699.59
2023-05-01T05:41:50.522Z,101688.88
2023-05-01T05:44:17.017Z,101691.78
2023-05-01T05:46:46.098Z,101692.78
2023-05-01T05:49:14.909Z,101685.59
2023-05-01T05:51:41.371Z,101681.28
2023-05-01T05:54:07.890Z,101680.00
2023-05-01T05:56:34.395Z,101684.06
2023-05-01T05:59:04.622Z,101685.22
2023-05-01T06:01:33.771Z,101693.59
2023-05-01T06:04:00.232Z,101682.72
2023-05-01T06:06:29.485Z,101681.28
2023-05-01T06:08:56.030Z,101675.84
2023-05-01T06:11:27.796Z,101683.09
2023-05-01T06:13:54.525Z,101674.75
2023-05-01T06:16:21.426Z,101684.06
2023-05-01T06:18:47.959Z,101679.59
2023-05-01T06:21:14.487Z,101673.97
2023-05-01T06:23:40.987Z,101677.03
2023-05-01T06:26:10.068Z,101674.16
2023-05-01T06:28:38.794Z,101674.16
2023-05-01T06:31:08.259Z,101671.59
2023-05-01T06:33:36.913Z,101662.94
2023-05-01T06:36:05.988Z,101671.91
2023-05-01T06:38:33.156Z,101674.50
2023-05-01T06:41:03.582Z,101671.91
2023-05-01T06:43:31.151Z,101666.44
2023-05-01T06:45:57.680Z,101666.75
2023-05-01T06:48:24.191Z,101668.38
2023-05-01T06:50:58.056Z,101664.47
2023-05-01T06:53:24.502Z,101661.56
2023-05-01T06:55:51.124Z,101668.34
2023-05-01T06:58:24.005Z,101673.13
2023-05-01T07:00:52.238Z,101672.31
2023-05-01T07:03:18.998Z,101661.16
2023-05-01T07:05:47.811Z,101662.53
2023-05-01T07:08:16.694Z,101666.53
2023-05-01T07:10:45.548Z,101661.78
2023-05-01T07:13:12.270Z,101662.19
2023-05-01T07:15:41.018Z,101650.25
2023-05-01T07:18:07.590Z,101656.00
2023-05-01T07:20:34.880Z,101657.22
2023-05-01T07:23:01.536Z,101654.56
2023-05-01T07:25:30.503Z,101659.03
2023-05-01T07:27:57.099Z,101655.94
2023-05-01T07:30:26.703Z,101663.69
2023-05-01T07:32:57.374Z,101657.59
2023-05-01T07:35:26.280Z,101658.00
2023-05-01T07:37:55.299Z,101656.50
2023-05-01T07:40:21.868Z,101657.13
2023-05-01T07:42:48.381Z,101662.88
2023-05-01T07:45:19.421Z,101657.13
2023-05-01T07:47:46.164Z,101661.34
2023-05-01T07:50:13.295Z,101663.06
2023-05-01T07:52:39.898Z,101660.84
2023-05-01T07:55:11.933Z,101658.44
2023-05-01T07:57:38.875Z,101647.78
2023-05-01T08:00:11.312Z,101645.47
2023-05-01T08:02:41.020Z,101649.03
2023-05-01T08:05:10.366Z,101650.91
2023-05-01T08:07:39.227Z,101652.75
2023-05-01T08:10:11.683Z,101652.16
2023-05-01T08:12:38.335Z,101656.06
2023-05-01T08:15:05.419Z,101661.56
2023-05-01T08:17:31.945Z,101661.81
2023-05-01T08:20:00.114Z,101663.78
2023-05-01T08:22:29.038Z,101653.09
2023-05-01T08:25:00.463Z,101664.78
2023-05-01T08:27:26.986Z,101664.03
2023-05-01T08:29:55.913Z,101657.47
2023-05-01T08:32:22.780Z,101654.81
2023-05-01T08:34:52.099Z,101650.38
2023-05-01T08:37:19.300Z,101657.22
2023-05-01T08:39:45.767Z,101659.38
2023-05-01T08:42:17.458Z,101656.25
2023-05-01T08:44:49.003Z,101661.13
2023-05-01T08:47:17.458Z,101663.53
2023-05-01T08:49:47.340Z,101663.53
2023-05-01T08:52:17.115Z,101662.19
2023-05-01T08:54:45.222Z,101661.22
2023-05-01T08:57:15.391Z,101667.00
2023-05-01T08:59:41.885Z,101660.75
2023-05-01T09:02:09.752Z,101664.50
2023-05-01T09:04:42.749Z,101665.66
2023-05-01T09:07:10.139Z,101667.88
2023-05-01T09:09:37.110Z,101668.16
2023-05-01T09:12:23.046Z,101669.84
2023-05-01T09:14:52.116Z,101666.28
2023-05-01T09:17:19.887Z,101660.31
2023-05-01T09:19:47.232Z,101663.06
2023-05-01T09:22:13.842Z,101667.94
2023-05-01T09:24:42.588Z,101669.84
2023-05-01T09:27:09.794Z,101665.84
2023-05-01T09:29:41.460Z,101659.59
2023-05-01T09:32:25.458Z,101665.03
2023-05-01T09:34:54.893Z,101668.19
2023-05-01T09:37:31.937Z,101667.91
2023-05-01T09:40:14.571Z,101668.44
2023-05-01T09:42:51.962Z,101674.31
2023-05-01T09:45:19.416Z,101668.31
2023-05-01T09:47:47.096Z,101671.22
2023-05-01T09:50:34.350Z,101675.66
2023-05-01T09:53:06.438Z,101683.38
2023-05-01T09:55:33.976Z,101677.25
2023-05-01T09:58:00.588Z,101680.59
2023-05-01T10:00:27.246Z,101683.63
2023-05-01T10:02:56.100Z,101676.72
2023-05-01T10:05:23.597Z,101673.25
2023-05-01T10:07:59.906Z,101666.75
2023-05-01T10:10:26.848Z,101675.91
2023-05-01T10:12:55.511Z,101670.38
2023-05-01T10:15:26.739Z,101662.63
2023-05-01T10:17:54.553Z,101666.78
2023-05-01T10:20:21.629Z,101664.56
2023-05-01T10:22:49.068Z,101662.81
2023-05-01T10:25:17.627Z,101658.16
2023-05-01T10:27:46.742Z,101669.78
2023-05-01T10:30:13.174Z,101667.19
2023-05-01T10:32:47.062Z,101665.41
2023-05-01T10:35:21.619Z,101675.81
2023-05-01T10:37:57.465Z,101674.47
2023-05-01T10:40:41.954Z,101673.28
2023-05-01T10:43:14.436Z,101671.91
2023-05-01T10:45:40.971Z,101675.28
2023-05-01T10:48:07.748Z,101678.28
2023-05-01T10:50:56.598Z,101678.06
2023-05-01T10:53:25.355Z,101677.69
2023-05-01T10:55:55.353Z,101677.09
2023-05-01T10:58:51.321Z,101675.50
2023-05-01T11:01:31.498Z,101678.28
2023-05-01T11:04:00.540Z,101677.84
2023-05-01T11:06:27.300Z,101686.66
2023-05-01T11:08:54.806Z,101683.28
2023-05-01T11:11:21.519Z,101681.47
2023-05-01T11:14:08.582Z,101683.66
2023-05-01T11:16:40.553Z,101686.06
2023-05-01T11:19:31.422Z,101687.84
2023-05-01T11:22:00.628Z,101678.69
2023-05-01T11:24:35.308Z,101683.69
2023-05-01T11:27:04.899Z,101682.44
2023-05-01T11:29:34.929Z,101682.63
2023-05-01T11:32:01.618Z,101687.03
2023-05-01T11:34:36.109Z,101681.03
2023-05-01T11:37:05.081Z,101679.84
2023-05-01T11:39:31.551Z,101681.44
2023-05-01T11:42:11.483Z,101675.66
2023-05-01T11:44:37.977Z,101679.78
2023-05-01T11:47:07.254Z,101679.56
2023-05-01T11:49:33.969Z,101679.41
2023-05-01T11:52:02.779Z,101675.59
2023-05-01T11:54:29.447Z,101674.38
2023-05-01T11:57:01.279Z,101677.16
2023-05-01T11:59:28.012Z,101677.81
2023-05-01T12:01:54.719Z,101684.72
2023-05-01T12:04:29.719Z,101680.44
2023-05-01T12:07:00.782Z,101679.75
2023-05-01T12:09:30.692Z,101675.63
2023-05-01T12:12:01.920Z,101679.84
2023-05-01T12:14:30.885Z,101681.19
2023-05-01T12:16:59.759Z,101690.66
2023-05-01T12:19:26.392Z,101674.59
2023-05-01T12:22:07.116Z,101678.56
2023-05-01T12:24:33.733Z,101678.13
2023-05-01T12:27:01.864Z,101681.38
2023-05-01T12:29:42.671Z,101683.47
2023-05-01T12:32:09.332Z,101682.34
2023-05-01T12:34:40.735Z,101685.00
2023-05-01T12:37:07.348Z,101689.97
2023-05-01T12:39:44.989Z,101691.97
2023-05-01T12:42:15.185Z,101689.53
2023-05-01T12:44:43.371Z,101694.44
2023-05-01T12:47:14.876Z,101693.69
2023-05-01T12:49:41.771Z,101692.63
2023-05-01T12:52:11.193Z,101699.63
2023-05-01T12:54:39.562Z,101699.84
2023-05-01T12:57:17.954Z,101692.25
2023-05-01T12:59:46.219Z,101691.03
2023-05-01T13:02:29.317Z,101703.03
2023-05-01T13:05:10.101Z,101693.84
2023-05-01T13:07:37.371Z,101691.84
2023-05-01T13:10:07.047Z,101693.25
2023-05-01T13:12:43.862Z,101692.03
2023-05-01T13:15:21.043Z,101682.47
2023-05-01T13:17:50.612Z,101693.25
2023-05-01T13:20:26.785Z,101688.84
2023-05-01T13:22:57.856Z,101693.03
2023-05-01T13:25:24.919Z,101688.63
2023-05-01T13:27:54.334Z,101695.41
2023-05-01T13:30:30.951Z,101690.25
2023-05-01T13:32:57.536Z,101685.00
2023-05-01T13:35:25.306Z,101683.03
2023-05-01T13:37:52.364Z,101687.59
2023-05-01T13:40:19.718Z,101696.38
2023-05-01T13:42:48.186Z,101696.16
2023-05-01T13:45:21.806Z,101700.53
2023-05-01T13:47:50.682Z,101694.94
2023-05-01T13:50:20.050Z,101695.09
2023-05-01T13:52:49.130Z,101702.22
2023-05-01T13:55:19.944Z,101700.34
2023-05-01T13:57:49.502Z,101699.09
2023-05-01T14:00:20.070Z,101701.88
2023-05-01T14:02:49.000Z,101707.47
2023-05-01T14:05:16.793Z,101710.22
2023-05-01T14:07:58.260Z,101702.91
2023-05-01T14:10:28.048Z,101697.53
2023-05-01T14:12:58.872Z,101699.31
2023-05-01T14:15:25.658Z,101693.34
2023-05-01T14:17:55.026Z,101701.13
2023-05-01T14:20:24.843Z,101699.56
2023-05-01T14:22:53.786Z,101701.59
2023-05-01T14:25:31.288Z,101696.91
2023-05-01T14:28:00.946Z,101697.97
2023-05-01T14:30:37.632Z,101696.59
2023-05-01T14:33:07.548Z,101691.81
2023-05-01T14:35:38.017Z,101684.66
2023-05-01T14:38:11.056Z,101690.44
2023-05-01T14:40:40.272Z,101684.25
2023-05-01T14:43:07.142Z,101689.88
2023-05-01T14:45:36.713Z,101686.28
2023-05-01T14:48:03.727Z,101687.44
2023-05-01T14:50:31.339Z,101686.94
2023-05-01T14:52:59.190Z,101686.66
2023-05-01T14:55:29.482Z,101686.00
2023-05-01T14:57:58.868Z,101685.19
2023-05-01T15:00:26.868Z,101678.28
2023-05-01T15:02:58.586Z,101687.13
2023-05-01T15:05:26.289Z,101686.44
2023-05-01T15:08:00.328Z,101683.69
2023-05-01T15:10:29.506Z,101690.66
2023-05-01T15:13:00.950Z,101689.69
2023-05-01T15:15:27.488Z,101684.66
2023-05-01T15:17:54.056Z,101691.69
2023-05-01T15:20:20.619Z,101695.72
2023-05-01T15:22:49.361Z,101691.69
2023-05-01T15:25:16.385Z,101688.91
2023-05-01T15:27:43.997Z,101691.78
2023-05-01T15:30:15.079Z,101693.41
2023-05-01T15:32:41.773Z,101690.59
2023-05-01T15:35:10.874Z,101693.59
2023-05-01T15:37:37.359Z,101702.59
2023-05-01T15:40:07.030Z,101700.00
2023-05-01T15:42:38.136Z,101695.41
2023-05-01T15:45:05.814Z,101697.66
2023-05-01T15:47:32.309Z,101695.84
2023-05-01T15:50:01.321Z,101703.41
2023-05-01T15:52:28.074Z,101700.78
2023-05-01T15:54:56.994Z,101704.16
2023-05-01T15:57:23.607Z,101711.78
2023-05-01T15:59:53.987Z,101712.41
2023-05-01T16:02:20.727Z,101717.00
2023-05-01T16:04:49.923Z,101711.81
2023-05-01T16:07:16.416Z,101717.38
2023-05-01T16:09:45.142Z,101723.38
2023-05-01T16:12:11.730Z,101727.13
2023-05-01T16:14:42.105Z,101727.28
2023-05-01T16:17:08.963Z,101725.13
2023-05-01T16:19:36.979Z,101727.50
2023-05-01T16:22:04.838Z,101725.69
2023-05-01T16:24:36.334Z,101729.28
2023-05-01T16:27:05.373Z,101729.84
2023-05-01T16:29:38.129Z,101738.22
2023-05-01T16:32:05.991Z,101738.78
2023-05-01T16:34:38.046Z,101738.16
2023-05-01T16:37:05.862Z,101739.13
2023-05-01T16:39:38.390Z,101741.56
2023-05-01T16:42:07.947Z,101738.53
2023-05-01T16:44:37.808Z,101746.75
2023-05-01T16:47:05.179Z,101751.72
2023-05-01T16:49:31.859Z,101756.47
2023-05-01T16:51:58.769Z,101762.19
2023-05-01T16:54:36.108Z,101768.47
2023-05-01T16:57:05.563Z,101775.78
2023-05-01T16:59:32.529Z,101774.34
2023-05-01T17:02:01.420Z,101772.75
2023-05-01T17:04:30.437Z,101773.81
2023-05-01T17:06:58.229Z,101775.31
2023-05-01T17:09:27.433Z,101779.06
2023-05-01T17:11:57.515Z,101779.44
2023-05-01T17:14:24.074Z,101778.47
2023-05-01T17:16:55.896Z,101779.59
2023-05-01T17:19:22.550Z,101786.09
2023-05-01T17:21:49.003Z,101780.31
2023-05-01T17:24:15.725Z,101791.47
2023-05-01T17:26:42.355Z,101787.47
2023-05-01T17:29:08.825Z,101785.84
2023-05-01T17:31:39.911Z,101785.25
2023-05-01T17:34:06.431Z,101788.44
2023-05-01T17:36:35.443Z,101795.78
2023-05-01T17:39:02.241Z,101792.22
2023-05-01T17:41:28.866Z,101800.47
2023-05-01T17:43:59.878Z,101799.44
2023-05-01T17:46:28.664Z,101797.44
2023-05-01T17:48:55.199Z,101808.47
2023-05-01T17:51:21.716Z,101806.31
2023-05-01T17:53:50.686Z,101806.44
2023-05-01T17:56:18.122Z,101814.06
2023-05-01T17:58:44.655Z,101808.41
2023-05-01T18:01:11.247Z,101811.81
2023-05-01T18:03:37.981Z,101811.72
2023-05-01T18:06:04.880Z,101815.75
2023-05-01T18:08:31.507Z,101820.25
2023-05-01T18:11:00.517Z,101825.78
2023-05-01T18:13:30.570Z,101820.41
2023-05-01T18:15:57.156Z,101822.31
2023-05-01T18:18:24.137Z,101824.56
2023-05-01T18:20:50.764Z,101833.00
2023-05-01T18:23:18.192Z,101830.50
2023-05-01T18:25:47.160Z,101829.44
2023-05-01T18:28:16.423Z,101836.66
2023-05-01T18:30:46.080Z,101841.72
2023-05-01T18:33:15.317Z,101844.56
2023-05-01T18:35:42.653Z,101854.00
2023-05-01T18:38:14.672Z,101849.69
2023-05-01T18:40:45.930Z,101852.31
2023-05-01T18:43:14.079Z,101858.97
2023-05-01T18:45:42.990Z,101861.44
2023-05-01T18:48:12.292Z,101867.13
2023-05-01T18:50:39.004Z,101869.59
2023-05-01T18:53:05.476Z,101868.66
2023-05-01T18:55:35.267Z,101871.75
2023-05-01T18:58:04.794Z,101875.19
2023-05-01T19:00:33.512Z,101874.88
2023-05-01T19:03:00.186Z,101874.41
2023-05-01T19:05:26.837Z,101881.72
2023-05-01T19:07:55.312Z,101886.09
2023-05-01T19:10:21.965Z,101884.81
2023-05-01T19:12:51.373Z,101891.94
2023-05-01T19:15:17.992Z,101892.09
2023-05-01T19:17:47.044Z,101891.00
2023-05-01T19:20:15.892Z,101898.44
2023-05-01T19:22:44.955Z,101900.03
2023-05-01T19:25:13.783Z,101903.59
2023-05-01T19:27:41.610Z,101910.53
2023-05-01T19:30:10.594Z,101899.91
2023-05-01T19:32:40.029Z,101905.72
2023-05-01T19:35:11.689Z,101908.50
2023-05-01T19:37:41.938Z,101913.66
2023-05-01T19:40:11.496Z,101912.53
2023-05-01T19:42:40.329Z,101924.97
2023-05-01T19:45:07.320Z,101926.44
2023-05-01T19:47:36.435Z,101919.50
2023-05-01T19:50:03.405Z,101925.91
2023-05-01T19:52:32.398Z,101933.81
2023-05-01T19:55:03.003Z,101939.13
2023-05-01T19:57:29.632Z,101939.59
2023-05-01T19:59:59.174Z,101941.53
2023-05-01T20:02:25.914Z,101945.38
2023-05-01T20:04:52.487Z,101955.06
2023-05-01T20:07:19.070Z,101956.34
2023-05-01T20:09:45.967Z,101955.38
2023-05-01T20:12:12.582Z,101962.75
2023-05-01T20:14:41.589Z,101965.97
2023-05-01T20:17:10.848Z,101973.69
2023-05-01T20:19:39.631Z,101976.25
2023-05-01T20:22:11.279Z,101981.88
2023-05-01T20:24:37.714Z,101986.69
2023-05-01T20:27:04.669Z,101983.50
2023-05-01T20:29:31.153Z,101985.28
2023-05-01T20:31:58.975Z,101989.31
2023-05-01T20:34:25.661Z,101993.34
2023-05-01T20:36:52.252Z,101990.28
2023-05-01T20:39:21.027Z,101996.56
2023-05-01T20:41:48.114Z,102001.09
2023-05-01T20:44:14.581Z,102001.56
2023-05-01T20:46:45.187Z,102009.44
2023-05-01T20:49:15.719Z,102007.19
2023-05-01T20:51:42.770Z,102008.00
2023-05-01T20:54:09.313Z,102013.47
2023-05-01T20:56:35.901Z,102013.94
2023-05-01T20:59:06.637Z,102009.13
2023-05-01T21:01:33.217Z,102008.00
2023-05-01T21:04:06.298Z,102000.06
2023-05-01T21:06:35.785Z,102012.44
2023-05-01T21:09:04.328Z,102002.25
2023-05-01T21:11:33.900Z,102008.03
2023-05-01T21:14:05.303Z,102013.19
2023-05-01T21:16:33.613Z,102022.81
2023-05-01T21:19:00.198Z,102025.03
2023-05-01T21:21:29.762Z,102027.59
2023-05-01T21:23:56.356Z,102031.91
2023-05-01T21:26:22.860Z,102034.97
2023-05-01T21:28:49.579Z,102029.03
2023-05-01T21:31:16.114Z,102022.94
2023-05-01T21:33:47.987Z,102030.50
2023-05-01T21:36:20.142Z,102027.41
2023-05-01T21:38:46.658Z,102026.28
2023-05-01T21:41:15.381Z,102029.16
2023-05-01T21:43:44.375Z,102028.38
2023-05-01T21:46:17.147Z,102028.19
2023-05-01T21:48:44.430Z,102026.78
2023-05-01T21:51:13.449Z,102036.91
2023-05-01T21:53:43.051Z,102034.97
2023-05-01T21:56:11.086Z,102038.22
2023-05-01T21:58:40.786Z,102043.88
2023-05-01T22:01:09.410Z,102040.00
2023-05-01T22:03:39.787Z,102037.59
2023-05-01T22:06:10.883Z,102033.88
2023-05-01T22:08:37.766Z,102040.00
2023-05-01T22:11:05.471Z,102044.69
2023-05-01T22:13:33.626Z,102037.28
2023-05-01T22:16:03.804Z,102035.53
2023-05-01T22:18:30.357Z,102036.16
2023-05-01T22:20:57.151Z,102033.09
2023-05-01T22:23:27.012Z,102032.28
2023-05-01T22:25:59.811Z,102038.41
2023-05-01T22:28:26.879Z,102047.72
2023-05-01T22:30:53.377Z,102042.91
2023-05-01T22:33:24.632Z,102051.06
2023-05-01T22:35:51.092Z,102057.03
2023-05-01T22:38:19.931Z,102062.00
2023-05-01T22:40:48.754Z,102060.09
2023-05-01T22:43:15.421Z,102069.91
2023-05-01T22:45:42.872Z,102068.16
2023-05-01T22:48:09.482Z,102080.19
2023-05-01T22:50:36.090Z,102087.63
2023-05-01T22:53:07.435Z,102089.53
2023-05-01T22:55:33.914Z,102095.94
2023-05-01T22:58:02.695Z,102092.72
2023-05-01T23:00:29.825Z,102100.22
2023-05-01T23:02:58.954Z,102103.06
2023-05-01T23:05:25.475Z,102097.72
2023-05-01T23:07:52.005Z,102104.13
2023-05-01T23:10:28.167Z,102103.13
2023-05-01T23:12:59.991Z,102111.88
2023-05-01T23:15:26.725Z,102113.28
2023-05-01T23:17:55.735Z,102116.13
2023-05-01T23:20:24.952Z,102119.97
2023-05-01T23:22:51.767Z,102121.06
2023-05-01T23:25:28.875Z,102122.41
2023-05-01T23:27:56.711Z,102123.56
2023-05-01T23:30:25.514Z,102132.59
2023-05-01T23:32:58.024Z,102137.41
2023-05-01T23:35:24.506Z,102142.44
2023-05-01T23:37:52.790Z,102142.88
2023-05-01T23:40:19.777Z,102139.94
2023-05-01T23:42:46.623Z,102138.25
2023-05-01T23:45:16.719Z,102144.34
2023-05-01T23:47:45.838Z,102140.00
2023-05-01T23:50:14.932Z,102149.19
2023-05-01T23:52:41.535Z,102143.09
2023-05-01T23:55:08.201Z,102141.19
2023-05-01T23:57:34.692Z,102148.63
